Futtsu Maru — JD3477 — position and weather

sailwx.info

Track history (hours):
 
Tides and Currents Weather Stations Pressure Air Temp Water Temp Dewpoint Dewpoint Depression Visibility Wind Speed Wind Dir Waves Ship Positions

Futtsu Maru

Last reported at 2017-Oct-18 17:59 UTC. Time now 2017-Oct-18 18:14 UTC.
Position N 35°22' E 139°54'.

Length 43 m; draft 3.8 m.

Type: Tug. MMSI: 431004371.

Date/timePositionNaut miles runAvg speedWind from/ knotsBaromVisibWave heightAir tempDewpointWater temp
2017-Oct-18 17:59N 35°22' E 139°54'0 0.0
2017-Oct-18 17:30N 35°22' E 139°54'0 0.0
2017-Oct-18 17:00N 35°22' E 139°54'0 0.0
2017-Oct-18 16:30N 35°22' E 139°54'0 0.0
2017-Oct-18 16:00N 35°22' E 139°54'0 0.0
2017-Oct-18 15:30N 35°22' E 139°54'0 0.0
2017-Oct-18 15:00N 35°22' E 139°54'1 1.4
2017-Oct-18 14:00N 35°22' E 139°52'0 0.3
2017-Oct-18 13:29N 35°22' E 139°52'2 3.6
2017-Oct-18 13:00N 35°23' E 139°50'3 5.5
2017-Oct-18 12:31N 35°25' E 139°48'1 1.2
2017-Oct-18 12:00N 35°25' E 139°49'4 6.7
2017-Oct-18 11:25N 35°22' E 139°52'1 3.0
2017-Oct-18 11:00N 35°21' E 139°51'1 1.2
2017-Oct-18 10:30N 35°22' E 139°51'2 4.7
2017-Oct-18 10:01N 35°22' E 139°48'1 1.2
2017-Oct-18 09:30N 35°22' E 139°49'1 2.3
2017-Oct-18 09:01N 35°24' E 139°49'2 3.1
2017-Oct-18 08:30N 35°24' E 139°51'3 5.6
2017-Oct-18 07:58N 35°22' E 139°53'0 0.0
2017-Oct-18 07:21N 35°22' E 139°53'0 0.0
2017-Oct-18 05:36N 35°22' E 139°53'1 9.8
2017-Oct-18 05:29N 35°22' E 139°51'2 5.1
2017-Oct-18 05:01N 35°21' E 139°49'0 0.0
2017-Oct-18 04:30N 35°21' E 139°49'0 0.0
2017-Oct-18 04:00N 35°21' E 139°49'0 0.3
2017-Oct-18 03:31N 35°21' E 139°49'1 1.3
2017-Oct-18 03:00N 35°21' E 139°49'2 3.5
2017-Oct-18 02:31N 35°23' E 139°48'0 0.2
2017-Oct-18 02:00N 35°23' E 139°48'0 0.2
2017-Oct-18 01:30N 35°23' E 139°48'5 1.5
2017-Oct-17 22:21N 35°22' E 139°54'3 7.3
2017-Oct-17 22:00N 35°23' E 139°51'1 1.7
2017-Oct-17 21:30N 35°22' E 139°50'1 1.1
2017-Oct-17 21:00N 35°22' E 139°50'0 0.0
2017-Oct-17 20:31N 35°22' E 139°50'3 5.9
2017-Oct-17 19:59N 35°22' E 139°54'0 0.0
2017-Oct-16 22:59N 35°22' E 139°54'1 1.5
2017-Oct-16 22:27N 35°22' E 139°53'0 0.0
2017-Oct-16 22:00N 35°22' E 139°53'0 0.0
2017-Oct-16 20:10N 35°22' E 139°53'0 0.0
2017-Oct-16 15:31N 35°22' E 139°53'0 0.1
2017-Oct-16 15:27N 35°22' E 139°53'1 1.5
2017-Oct-16 15:01N 35°22' E 139°52'1 1.1
2017-Oct-16 14:01N 35°23' E 139°51'3 5.9
2017-Oct-16 13:30N 35°25' E 139°48'2 4.8
2017-Oct-16 13:00N 35°26' E 139°50'4 7.2
2017-Oct-16 12:30N 35°23' E 139°51'1 1.8
2017-Oct-16 12:00N 35°22' E 139°52'0 0.1
2017-Oct-16 11:30N 35°22' E 139°52'1 0.8
2017-Oct-16 10:47N 35°22' E 139°53'1 2.0
2017-Oct-16 10:30N 35°22' E 139°52'1 2.3
2017-Oct-16 10:00N 35°22' E 139°53'0 0.1
2017-Oct-16 09:30N 35°22' E 139°53'1 0.4
2017-Oct-16 07:23N 35°22' E 139°54'0 0.6
2017-Oct-16 06:58N 35°22' E 139°54'1 1.2
2017-Oct-16 06:30N 35°22' E 139°53'1 0.0
2017-Oct-15 06:07N 35°22' E 139°54'2 7.3
2017-Oct-15 05:54N 35°22' E 139°52'0 0.2
2017-Oct-15 05:30N 35°22' E 139°52'0 0.5
2017-Oct-15 05:00N 35°22' E 139°52'2 4.6
2017-Oct-15 04:31N 35°23' E 139°49'2 4.0
2017-Oct-15 04:00N 35°25' E 139°49'2 3.7
2017-Oct-15 03:31N 35°24' E 139°50'2 4.4
2017-Oct-15 02:57N 35°22' E 139°52'0 0.5
2017-Oct-15 02:30N 35°22' E 139°52'3 5.3
2017-Oct-15 02:00N 35°21' E 139°49'0 0.0
2017-Oct-15 01:30N 35°21' E 139°49'0 0.8
2017-Oct-15 01:01N 35°21' E 139°49'3 5.1
2017-Oct-15 00:30N 35°23' E 139°48'2 4.5
2017-Oct-15 00:00N 35°22' E 139°46'0 0.2
2017-Oct-14 23:30N 35°22' E 139°46'5 8.9
2017-Oct-14 22:57N 35°22' E 139°52'2 0.1
2017-Oct-13 23:15N 35°22' E 139°54'2 9.2
2017-Oct-13 23:00N 35°23' E 139°51'1 1.9
2017-Oct-13 22:30N 35°22' E 139°51'1 2.3
2017-Oct-13 22:00N 35°22' E 139°50'2 3.1
2017-Oct-13 21:30N 35°24' E 139°49'4 0.3
2017-Oct-13 07:18N 35°22' E 139°54'1 3.2
2017-Oct-13 07:00N 35°22' E 139°52'0 0.2
2017-Oct-13 06:29N 35°22' E 139°52'1 0.7
2017-Oct-13 05:21N 35°22' E 139°52'1 3.7
2017-Oct-13 05:00N 35°23' E 139°50'3 5.7
2017-Oct-13 04:30N 35°25' E 139°48'3 4.9
2017-Oct-13 03:58N 35°27' E 139°51'1 3.0
2017-Oct-13 03:30N 35°25' E 139°51'4 0.2
2017-Oct-12 04:07N 35°22' E 139°54'1 8.1
2017-Oct-12 04:00N 35°22' E 139°53'1 2.0
2017-Oct-12 03:30N 35°22' E 139°52'0 0.3
2017-Oct-12 02:59N 35°22' E 139°52'2 3.4
2017-Oct-12 02:26N 35°23' E 139°50'3 5.9
2017-Oct-12 02:00N 35°25' E 139°48'3 5.7
2017-Oct-12 01:30N 35°26' E 139°51'4 8.1
2017-Oct-12 01:01N 35°22' E 139°52'2 0.0
2017-Oct-10 00:47N 35°22' E 139°54'2 5.6
2017-Oct-10 00:30N 35°22' E 139°52'3 6.2
2017-Oct-10 00:00N 35°21' E 139°49'0 0.1
2017-Oct-09 23:31N 35°21' E 139°49'0 0.2
2017-Oct-09 23:00N 35°21' E 139°49'0 0.0
2017-Oct-09 22:30N 35°21' E 139°49'0 0.1
2017-Oct-09 22:00N 35°21' E 139°49'0 0.1
2017-Oct-09 21:30N 35°21' E 139°49'0 0.2
2017-Oct-09 21:01N 35°21' E 139°49'0 0.1
2017-Oct-09 20:30N 35°21' E 139°49'0 0.1
2017-Oct-09 19:59N 35°21' E 139°49'0 0.7
2017-Oct-09 19:30N 35°20' E 139°49'0 0.0
2017-Oct-09 19:00N 35°20' E 139°49'0 0.0
2017-Oct-09 18:29N 35°20' E 139°49'0 0.0
2017-Oct-09 17:55N 35°20' E 139°49'0 0.0
2017-Oct-09 17:29N 35°20' E 139°49'0 0.1
2017-Oct-09 16:59N 35°20' E 139°49'0 0.0
2017-Oct-09 16:26N 35°20' E 139°49'0 0.0
2017-Oct-09 15:59N 35°20' E 139°49'0 0.1
2017-Oct-09 15:24N 35°20' E 139°49'0 0.0
2017-Oct-09 14:31N 35°20' E 139°49'0 0.0
2017-Oct-09 14:26N 35°20' E 139°49'0 0.1
2017-Oct-09 13:46N 35°20' E 139°49'0 0.1
2017-Oct-09 12:58N 35°21' E 139°49'0 0.4
2017-Oct-09 12:31N 35°21' E 139°49'0 0.1
2017-Oct-09 12:00N 35°21' E 139°49'0 0.2
2017-Oct-09 11:30N 35°21' E 139°49'0 0.1
2017-Oct-09 11:00N 35°21' E 139°49'0 0.1
2017-Oct-09 10:30N 35°21' E 139°49'0 0.4
2017-Oct-09 09:57N 35°21' E 139°49'0 0.3
2017-Oct-09 09:30N 35°21' E 139°49'0 0.2
2017-Oct-09 09:01N 35°21' E 139°49'0 0.2
2017-Oct-09 08:31N 35°21' E 139°49'0 0.2
2017-Oct-09 08:00N 35°21' E 139°49'0 0.4
2017-Oct-09 07:29N 35°21' E 139°49'0 0.2
2017-Oct-09 07:01N 35°21' E 139°49'0 0.2
2017-Oct-09 06:25N 35°21' E 139°49'0 0.5
2017-Oct-09 05:56N 35°21' E 139°49'0 0.4
2017-Oct-09 05:30N 35°21' E 139°49'0 0.0
2017-Oct-09 04:43N 35°21' E 139°49'0 0.3
2017-Oct-09 04:30N 35°21' E 139°49'0 0.3
2017-Oct-09 03:52N 35°21' E 139°49'0 0.6
2017-Oct-09 03:30N 35°21' E 139°49'0 0.1
2017-Oct-09 03:00N 35°21' E 139°49'0 0.2
2017-Oct-09 02:29N 35°21' E 139°49'0 0.3
2017-Oct-09 01:53N 35°21' E 139°49'0 0.7
2017-Oct-09 01:30N 35°21' E 139°49'0 0.2
2017-Oct-09 00:53N 35°21' E 139°49'0 0.0
2017-Oct-09 00:27N 35°21' E 139°49'0 0.1
2017-Oct-08 23:59N 35°21' E 139°49'0 0.1
2017-Oct-08 23:18N 35°21' E 139°49'0 0.8
2017-Oct-08 23:00N 35°21' E 139°49'1 2.2
2017-Oct-08 22:30N 35°22' E 139°49'  
Track history (hours):
 
Tides and Currents Weather Stations Pressure Air Temp Water Temp Dewpoint Dewpoint Depression Visibility Wind Speed Wind Dir Waves Ship Positions

Futtsu Maru

Last reported at 2017-Oct-18 17:59 UTC. Time now 2017-Oct-18 18:14 UTC.
Position N 35°22' E 139°54'.

Length 43 m; draft 3.8 m.

Type: Tug. MMSI: 431004371.

Date/timePositionNaut miles runAvg speedWind from/ knotsBaromVisibWave heightAir tempDewpointWater temp
2017-Oct-18 17:59N 35°22' E 139°54'0 0.0
2017-Oct-18 17:30N 35°22' E 139°54'0 0.0
2017-Oct-18 17:00N 35°22' E 139°54'0 0.0
2017-Oct-18 16:30N 35°22' E 139°54'0 0.0
2017-Oct-18 16:00N 35°22' E 139°54'0 0.0
2017-Oct-18 15:30N 35°22' E 139°54'0 0.0
2017-Oct-18 15:00N 35°22' E 139°54'1 1.4
2017-Oct-18 14:00N 35°22' E 139°52'0 0.3
2017-Oct-18 13:29N 35°22' E 139°52'2 3.6
2017-Oct-18 13:00N 35°23' E 139°50'3 5.5
2017-Oct-18 12:31N 35°25' E 139°48'1 1.2
2017-Oct-18 12:00N 35°25' E 139°49'4 6.7
2017-Oct-18 11:25N 35°22' E 139°52'1 3.0
2017-Oct-18 11:00N 35°21' E 139°51'1 1.2
2017-Oct-18 10:30N 35°22' E 139°51'2 4.7
2017-Oct-18 10:01N 35°22' E 139°48'1 1.2
2017-Oct-18 09:30N 35°22' E 139°49'1 2.3
2017-Oct-18 09:01N 35°24' E 139°49'2 3.1
2017-Oct-18 08:30N 35°24' E 139°51'3 5.6
2017-Oct-18 07:58N 35°22' E 139°53'0 0.0
2017-Oct-18 07:21N 35°22' E 139°53'0 0.0
2017-Oct-18 05:36N 35°22' E 139°53'1 9.8
2017-Oct-18 05:29N 35°22' E 139°51'2 5.1
2017-Oct-18 05:01N 35°21' E 139°49'0 0.0
2017-Oct-18 04:30N 35°21' E 139°49'0 0.0
2017-Oct-18 04:00N 35°21' E 139°49'0 0.3
2017-Oct-18 03:31N 35°21' E 139°49'1 1.3
2017-Oct-18 03:00N 35°21' E 139°49'2 3.5
2017-Oct-18 02:31N 35°23' E 139°48'0 0.2
2017-Oct-18 02:00N 35°23' E 139°48'0 0.2
2017-Oct-18 01:30N 35°23' E 139°48'5 1.5
2017-Oct-17 22:21N 35°22' E 139°54'3 7.3
2017-Oct-17 22:00N 35°23' E 139°51'1 1.7
2017-Oct-17 21:30N 35°22' E 139°50'1 1.1
2017-Oct-17 21:00N 35°22' E 139°50'0 0.0
2017-Oct-17 20:31N 35°22' E 139°50'3 5.9
2017-Oct-17 19:59N 35°22' E 139°54'0 0.0
2017-Oct-16 22:59N 35°22' E 139°54'1 1.5
2017-Oct-16 22:27N 35°22' E 139°53'0 0.0
2017-Oct-16 22:00N 35°22' E 139°53'0 0.0
2017-Oct-16 20:10N 35°22' E 139°53'0 0.0
2017-Oct-16 15:31N 35°22' E 139°53'0 0.1
2017-Oct-16 15:27N 35°22' E 139°53'1 1.5
2017-Oct-16 15:01N 35°22' E 139°52'1 1.1
2017-Oct-16 14:01N 35°23' E 139°51'3 5.9
2017-Oct-16 13:30N 35°25' E 139°48'2 4.8
2017-Oct-16 13:00N 35°26' E 139°50'4 7.2
2017-Oct-16 12:30N 35°23' E 139°51'1 1.8
2017-Oct-16 12:00N 35°22' E 139°52'0 0.1
2017-Oct-16 11:30N 35°22' E 139°52'1 0.8
2017-Oct-16 10:47N 35°22' E 139°53'1 2.0
2017-Oct-16 10:30N 35°22' E 139°52'1 2.3
2017-Oct-16 10:00N 35°22' E 139°53'0 0.1
2017-Oct-16 09:30N 35°22' E 139°53'1 0.4
2017-Oct-16 07:23N 35°22' E 139°54'0 0.6
2017-Oct-16 06:58N 35°22' E 139°54'1 1.2
2017-Oct-16 06:30N 35°22' E 139°53'1 0.0
2017-Oct-15 06:07N 35°22' E 139°54'2 7.3
2017-Oct-15 05:54N 35°22' E 139°52'0 0.2
2017-Oct-15 05:30N 35°22' E 139°52'0 0.5
2017-Oct-15 05:00N 35°22' E 139°52'2 4.6
2017-Oct-15 04:31N 35°23' E 139°49'2 4.0
2017-Oct-15 04:00N 35°25' E 139°49'2 3.7
2017-Oct-15 03:31N 35°24' E 139°50'2 4.4
2017-Oct-15 02:57N 35°22' E 139°52'0 0.5
2017-Oct-15 02:30N 35°22' E 139°52'3 5.3
2017-Oct-15 02:00N 35°21' E 139°49'0 0.0
2017-Oct-15 01:30N 35°21' E 139°49'0 0.8
2017-Oct-15 01:01N 35°21' E 139°49'3 5.1
2017-Oct-15 00:30N 35°23' E 139°48'2 4.5
2017-Oct-15 00:00N 35°22' E 139°46'0 0.2
2017-Oct-14 23:30N 35°22' E 139°46'5 8.9
2017-Oct-14 22:57N 35°22' E 139°52'2 0.1
2017-Oct-13 23:15N 35°22' E 139°54'2 9.2
2017-Oct-13 23:00N 35°23' E 139°51'1 1.9
2017-Oct-13 22:30N 35°22' E 139°51'1 2.3
2017-Oct-13 22:00N 35°22' E 139°50'2 3.1
2017-Oct-13 21:30N 35°24' E 139°49'4 0.3
2017-Oct-13 07:18N 35°22' E 139°54'1 3.2
2017-Oct-13 07:00N 35°22' E 139°52'0 0.2
2017-Oct-13 06:29N 35°22' E 139°52'1 0.7
2017-Oct-13 05:21N 35°22' E 139°52'1 3.7
2017-Oct-13 05:00N 35°23' E 139°50'3 5.7
2017-Oct-13 04:30N 35°25' E 139°48'3 4.9
2017-Oct-13 03:58N 35°27' E 139°51'1 3.0
2017-Oct-13 03:30N 35°25' E 139°51'4 0.2
2017-Oct-12 04:07N 35°22' E 139°54'1 8.1
2017-Oct-12 04:00N 35°22' E 139°53'1 2.0
2017-Oct-12 03:30N 35°22' E 139°52'0 0.3
2017-Oct-12 02:59N 35°22' E 139°52'2 3.4
2017-Oct-12 02:26N 35°23' E 139°50'3 5.9
2017-Oct-12 02:00N 35°25' E 139°48'3 5.7
2017-Oct-12 01:30N 35°26' E 139°51'4 8.1
2017-Oct-12 01:01N 35°22' E 139°52'2 0.0
2017-Oct-10 00:47N 35°22' E 139°54'2 5.6
2017-Oct-10 00:30N 35°22' E 139°52'3 6.2
2017-Oct-10 00:00N 35°21' E 139°49'0 0.1
2017-Oct-09 23:31N 35°21' E 139°49'0 0.2
2017-Oct-09 23:00N 35°21' E 139°49'0 0.0
2017-Oct-09 22:30N 35°21' E 139°49'0 0.1
2017-Oct-09 22:00N 35°21' E 139°49'0 0.1
2017-Oct-09 21:30N 35°21' E 139°49'0 0.2
2017-Oct-09 21:01N 35°21' E 139°49'0 0.1
2017-Oct-09 20:30N 35°21' E 139°49'0 0.1
2017-Oct-09 19:59N 35°21' E 139°49'0 0.7
2017-Oct-09 19:30N 35°20' E 139°49'0 0.0
2017-Oct-09 19:00N 35°20' E 139°49'0 0.0
2017-Oct-09 18:29N 35°20' E 139°49'0 0.0
2017-Oct-09 17:55N 35°20' E 139°49'0 0.0
2017-Oct-09 17:29N 35°20' E 139°49'0 0.1
2017-Oct-09 16:59N 35°20' E 139°49'0 0.0
2017-Oct-09 16:26N 35°20' E 139°49'0 0.0
2017-Oct-09 15:59N 35°20' E 139°49'0 0.1
2017-Oct-09 15:24N 35°20' E 139°49'0 0.0
2017-Oct-09 14:31N 35°20' E 139°49'0 0.0
2017-Oct-09 14:26N 35°20' E 139°49'0 0.1
2017-Oct-09 13:46N 35°20' E 139°49'0 0.1
2017-Oct-09 12:58N 35°21' E 139°49'0 0.4
2017-Oct-09 12:31N 35°21' E 139°49'0 0.1
2017-Oct-09 12:00N 35°21' E 139°49'0 0.2
2017-Oct-09 11:30N 35°21' E 139°49'0 0.1
2017-Oct-09 11:00N 35°21' E 139°49'0 0.1
2017-Oct-09 10:30N 35°21' E 139°49'0 0.4
2017-Oct-09 09:57N 35°21' E 139°49'0 0.3
2017-Oct-09 09:30N 35°21' E 139°49'0 0.2
2017-Oct-09 09:01N 35°21' E 139°49'0 0.2
2017-Oct-09 08:31N 35°21' E 139°49'0 0.2
2017-Oct-09 08:00N 35°21' E 139°49'0 0.4
2017-Oct-09 07:29N 35°21' E 139°49'0 0.2
2017-Oct-09 07:01N 35°21' E 139°49'0 0.2
2017-Oct-09 06:25N 35°21' E 139°49'0 0.5
2017-Oct-09 05:56N 35°21' E 139°49'0 0.4
2017-Oct-09 05:30N 35°21' E 139°49'0 0.0
2017-Oct-09 04:43N 35°21' E 139°49'0 0.3
2017-Oct-09 04:30N 35°21' E 139°49'0 0.3
2017-Oct-09 03:52N 35°21' E 139°49'0 0.6
2017-Oct-09 03:30N 35°21' E 139°49'0 0.1
2017-Oct-09 03:00N 35°21' E 139°49'0 0.2
2017-Oct-09 02:29N 35°21' E 139°49'0 0.3
2017-Oct-09 01:53N 35°21' E 139°49'0 0.7
2017-Oct-09 01:30N 35°21' E 139°49'0 0.2
2017-Oct-09 00:53N 35°21' E 139°49'0 0.0
2017-Oct-09 00:27N 35°21' E 139°49'0 0.1
2017-Oct-08 23:59N 35°21' E 139°49'0 0.1
2017-Oct-08 23:18N 35°21' E 139°49'0 0.8
2017-Oct-08 23:00N 35°21' E 139°49'1 2.2
2017-Oct-08 22:30N 35°22' E 139°49'  

Dump ship's entire track history